sensor_id;sensor_type;location;lat;lon;timestamp;P1;durP1;ratioP1;P2;durP2;ratioP2
66093;SDS011;52876;49.394;10.892;2022-09-12T00:00:17;15.40;;;13.87;;
66093;SDS011;52876;49.394;10.892;2022-09-12T00:02:50;14.30;;;13.00;;
66093;SDS011;52876;49.394;10.892;2022-09-12T00:05:17;16.17;;;14.50;;
66093;SDS011;52876;49.394;10.892;2022-09-12T00:07:44;13.97;;;12.67;;
66093;SDS011;52876;49.394;10.892;2022-09-12T00:10:11;12.97;;;11.73;;
66093;SDS011;52876;49.394;10.892;2022-09-12T00:12:43;13.23;;;12.03;;
66093;SDS011;52876;49.394;10.892;2022-09-12T00:15:10;13.03;;;11.83;;
66093;SDS011;52876;49.394;10.892;2022-09-12T00:17:43;12.50;;;11.40;;
66093;SDS011;52876;49.394;10.892;2022-09-12T00:20:09;14.87;;;13.30;;
66093;SDS011;52876;49.394;10.892;2022-09-12T00:22:37;15.93;;;13.57;;
66093;SDS011;52876;49.394;10.892;2022-09-12T00:25:04;15.17;;;13.63;;
66093;SDS011;52876;49.394;10.892;2022-09-12T00:27:34;14.10;;;12.60;;
66093;SDS011;52876;49.394;10.892;2022-09-12T00:30:00;13.47;;;12.17;;
66093;SDS011;52876;49.394;10.892;2022-09-12T00:32:29;11.93;;;10.83;;
66093;SDS011;52876;49.394;10.892;2022-09-12T00:34:56;14.83;;;13.23;;
66093;SDS011;52876;49.394;10.892;2022-09-12T00:37:22;14.23;;;12.73;;
66093;SDS011;52876;49.394;10.892;2022-09-12T00:39:48;12.00;;;11.00;;
66093;SDS011;52876;49.394;10.892;2022-09-12T00:42:16;13.40;;;12.10;;
66093;SDS011;52876;49.394;10.892;2022-09-12T00:44:46;13.43;;;12.10;;
66093;SDS011;52876;49.394;10.892;2022-09-12T00:47:15;11.97;;;10.80;;
66093;SDS011;52876;49.394;10.892;2022-09-12T00:49:46;13.17;;;11.83;;
66093;SDS011;52876;49.394;10.892;2022-09-12T00:52:18;12.50;;;11.30;;
66093;SDS011;52876;49.394;10.892;2022-09-12T00:54:49;13.90;;;12.50;;
66093;SDS011;52876;49.394;10.892;2022-09-12T00:57:19;11.83;;;10.83;;
66093;SDS011;52876;49.394;10.892;2022-09-12T00:59:48;13.50;;;12.20;;
66093;SDS011;52876;49.394;10.892;2022-09-12T01:02:18;12.43;;;11.33;;
66093;SDS011;52876;49.394;10.892;2022-09-12T01:04:45;13.47;;;12.27;;
66093;SDS011;52876;49.394;10.892;2022-09-12T01:07:12;12.60;;;11.43;;
66093;SDS011;52876;49.394;10.892;2022-09-12T01:09:40;12.70;;;11.57;;
66093;SDS011;52876;49.394;10.892;2022-09-12T01:12:07;10.77;;;9.73;;
66093;SDS011;52876;49.394;10.892;2022-09-12T01:14:33;12.50;;;11.30;;
66093;SDS011;52876;49.394;10.892;2022-09-12T01:17:00;12.10;;;11.00;;
66093;SDS011;52876;49.394;10.892;2022-09-12T01:19:36;12.93;;;11.67;;
66093;SDS011;52876;49.394;10.892;2022-09-12T01:22:29;12.50;;;11.27;;
66093;SDS011;52876;49.394;10.892;2022-09-12T01:25:19;12.73;;;11.50;;
66093;SDS011;52876;49.394;10.892;2022-09-12T01:28:00;13.80;;;12.40;;
66093;SDS011;52876;49.394;10.892;2022-09-12T01:30:46;14.13;;;12.80;;
66093;SDS011;52876;49.394;10.892;2022-09-12T01:36:26;13.93;;;12.20;;
66093;SDS011;52876;49.394;10.892;2022-09-12T01:39:01;12.40;;;11.20;;
66093;SDS011;52876;49.394;10.892;2022-09-12T01:41:41;15.07;;;13.10;;
66093;SDS011;52876;49.394;10.892;2022-09-12T01:44:13;14.30;;;12.70;;
66093;SDS011;52876;49.394;10.892;2022-09-12T01:46:52;14.97;;;13.47;;
66093;SDS011;52876;49.394;10.892;2022-09-12T01:49:23;14.40;;;13.00;;
66093;SDS011;52876;49.394;10.892;2022-09-12T01:51:55;14.57;;;13.17;;
66093;SDS011;52876;49.394;10.892;2022-09-12T01:54:28;15.63;;;14.10;;
66093;SDS011;52876;49.394;10.892;2022-09-12T01:57:00;14.77;;;13.37;;
66093;SDS011;52876;49.394;10.892;2022-09-12T01:59:33;12.47;;;11.27;;
66093;SDS011;52876;49.394;10.892;2022-09-12T02:02:06;14.80;;;12.70;;
66093;SDS011;52876;49.394;10.892;2022-09-12T02:04:37;17.13;;;15.30;;
66093;SDS011;52876;49.394;10.892;2022-09-12T02:07:10;15.77;;;14.07;;
66093;SDS011;52876;49.394;10.892;2022-09-12T02:09:42;18.60;;;14.53;;
66093;SDS011;52876;49.394;10.892;2022-09-12T02:12:11;19.10;;;16.80;;
66093;SDS011;52876;49.394;10.892;2022-09-12T02:14:41;24.47;;;17.63;;
66093;SDS011;52876;49.394;10.892;2022-09-12T02:17:12;18.60;;;15.87;;
66093;SDS011;52876;49.394;10.892;2022-09-12T02:19:42;14.67;;;13.27;;
66093;SDS011;52876;49.394;10.892;2022-09-12T02:22:13;20.97;;;15.40;;
66093;SDS011;52876;49.394;10.892;2022-09-12T02:24:42;16.33;;;14.63;;
66093;SDS011;52876;49.394;10.892;2022-09-12T02:27:14;18.47;;;15.83;;
66093;SDS011;52876;49.394;10.892;2022-09-12T02:29:45;16.60;;;14.90;;
66093;SDS011;52876;49.394;10.892;2022-09-12T02:32:16;18.83;;;16.23;;
66093;SDS011;52876;49.394;10.892;2022-09-12T02:34:50;23.07;;;18.70;;
66093;SDS011;52876;49.394;10.892;2022-09-12T02:37:20;21.30;;;17.93;;
66093;SDS011;52876;49.394;10.892;2022-09-12T02:39:52;18.33;;;15.97;;
66093;SDS011;52876;49.394;10.892;2022-09-12T02:42:20;17.40;;;15.60;;
66093;SDS011;52876;49.394;10.892;2022-09-12T02:44:46;23.13;;;16.77;;
66093;SDS011;52876;49.394;10.892;2022-09-12T02:47:14;19.50;;;16.37;;
66093;SDS011;52876;49.394;10.892;2022-09-12T02:49:47;20.00;;;17.10;;
66093;SDS011;52876;49.394;10.892;2022-09-12T02:52:13;20.10;;;17.13;;
66093;SDS011;52876;49.394;10.892;2022-09-12T02:54:40;17.30;;;14.67;;
66093;SDS011;52876;49.394;10.892;2022-09-12T02:57:14;17.63;;;15.37;;
66093;SDS011;52876;49.394;10.892;2022-09-12T02:59:41;17.53;;;15.77;;
66093;SDS011;52876;49.394;10.892;2022-09-12T03:02:14;14.70;;;13.20;;
66093;SDS011;52876;49.394;10.892;2022-09-12T03:04:52;16.00;;;14.30;;
66093;SDS011;52876;49.394;10.892;2022-09-12T03:07:44;17.33;;;15.53;;
66093;SDS011;52876;49.394;10.892;2022-09-12T03:10:22;17.27;;;15.57;;
66093;SDS011;52876;49.394;10.892;2022-09-12T03:12:56;19.00;;;15.00;;
66093;SDS011;52876;49.394;10.892;2022-09-12T03:15:34;17.60;;;15.60;;
66093;SDS011;52876;49.394;10.892;2022-09-12T03:18:14;23.37;;;16.80;;
66093;SDS011;52876;49.394;10.892;2022-09-12T03:20:49;15.97;;;14.07;;
66093;SDS011;52876;49.394;10.892;2022-09-12T03:23:23;27.57;;;19.27;;
66093;SDS011;52876;49.394;10.892;2022-09-12T03:25:55;19.80;;;13.70;;
66093;SDS011;52876;49.394;10.892;2022-09-12T03:28:25;14.10;;;12.70;;
66093;SDS011;52876;49.394;10.892;2022-09-12T03:30:53;15.00;;;13.50;;
66093;SDS011;52876;49.394;10.892;2022-09-12T03:33:22;18.47;;;15.90;;
66093;SDS011;52876;49.394;10.892;2022-09-12T03:35:49;15.17;;;12.87;;
66093;SDS011;52876;49.394;10.892;2022-09-12T03:38:16;18.43;;;16.43;;
66093;SDS011;52876;49.394;10.892;2022-09-12T03:40:42;17.93;;;15.23;;
66093;SDS011;52876;49.394;10.892;2022-09-12T03:43:09;18.10;;;15.23;;
66093;SDS011;52876;49.394;10.892;2022-09-12T03:45:36;16.33;;;14.60;;
66093;SDS011;52876;49.394;10.892;2022-09-12T03:48:02;21.20;;;16.70;;
66093;SDS011;52876;49.394;10.892;2022-09-12T03:50:31;16.03;;;13.93;;
66093;SDS011;52876;49.394;10.892;2022-09-12T03:52:58;11.90;;;10.70;;
66093;SDS011;52876;49.394;10.892;2022-09-12T03:55:25;12.30;;;11.10;;
66093;SDS011;52876;49.394;10.892;2022-09-12T03:57:52;14.73;;;11.73;;
66093;SDS011;52876;49.394;10.892;2022-09-12T04:00:18;11.70;;;10.57;;
66093;SDS011;52876;49.394;10.892;2022-09-12T04:02:54;14.90;;;12.37;;
66093;SDS011;52876;49.394;10.892;2022-09-12T04:05:20;12.47;;;11.27;;
66093;SDS011;52876;49.394;10.892;2022-09-12T04:07:49;13.40;;;12.00;;
66093;SDS011;52876;49.394;10.892;2022-09-12T04:10:16;11.90;;;10.67;;
66093;SDS011;52876;49.394;10.892;2022-09-12T04:13:02;16.20;;;13.77;;
66093;SDS011;52876;49.394;10.892;2022-09-12T04:15:28;15.80;;;13.73;;
66093;SDS011;52876;49.394;10.892;2022-09-12T04:17:55;12.60;;;11.40;;
66093;SDS011;52876;49.394;10.892;2022-09-12T04:20:23;12.60;;;11.40;;
66093;SDS011;52876;49.394;10.892;2022-09-12T04:22:51;13.67;;;12.20;;
66093;SDS011;52876;49.394;10.892;2022-09-12T04:25:17;13.03;;;11.77;;
66093;SDS011;52876;49.394;10.892;2022-09-12T04:27:46;14.57;;;13.10;;
66093;SDS011;52876;49.394;10.892;2022-09-12T04:30:12;12.87;;;11.53;;
66093;SDS011;52876;49.394;10.892;2022-09-12T04:32:55;12.80;;;11.50;;
66093;SDS011;52876;49.394;10.892;2022-09-12T04:35:21;12.37;;;10.80;;
66093;SDS011;52876;49.394;10.892;2022-09-12T04:37:49;11.57;;;10.47;;
66093;SDS011;52876;49.394;10.892;2022-09-12T04:40:19;11.53;;;10.40;;
66093;SDS011;52876;49.394;10.892;2022-09-12T04:42:58;11.97;;;10.80;;
66093;SDS011;52876;49.394;10.892;2022-09-12T04:45:24;13.10;;;10.73;;
66093;SDS011;52876;49.394;10.892;2022-09-12T04:47:51;12.00;;;10.73;;
66093;SDS011;52876;49.394;10.892;2022-09-12T04:50:19;10.00;;;9.00;;
66093;SDS011;52876;49.394;10.892;2022-09-12T04:52:48;10.40;;;9.50;;
66093;SDS011;52876;49.394;10.892;2022-09-12T04:55:14;10.40;;;9.47;;
66093;SDS011;52876;49.394;10.892;2022-09-12T04:57:46;11.23;;;10.13;;
66093;SDS011;52876;49.394;10.892;2022-09-12T05:00:12;9.90;;;9.00;;
66093;SDS011;52876;49.394;10.892;2022-09-12T05:02:46;11.17;;;10.13;;
66093;SDS011;52876;49.394;10.892;2022-09-12T05:05:13;11.23;;;10.23;;
66093;SDS011;52876;49.394;10.892;2022-09-12T05:07:40;10.50;;;9.60;;
66093;SDS011;52876;49.394;10.892;2022-09-12T05:10:10;16.43;;;12.43;;
66093;SDS011;52876;49.394;10.892;2022-09-12T05:12:43;13.53;;;11.87;;
66093;SDS011;52876;49.394;10.892;2022-09-12T05:15:12;11.70;;;10.67;;
66093;SDS011;52876;49.394;10.892;2022-09-12T05:17:40;11.50;;;10.40;;
66093;SDS011;52876;49.394;10.892;2022-09-12T05:20:07;12.73;;;11.53;;
66093;SDS011;52876;49.394;10.892;2022-09-12T05:22:38;10.90;;;9.80;;
66093;SDS011;52876;49.394;10.892;2022-09-12T05:25:07;15.43;;;10.13;;
66093;SDS011;52876;49.394;10.892;2022-09-12T05:27:37;9.17;;;8.37;;
66093;SDS011;52876;49.394;10.892;2022-09-12T05:30:04;8.30;;;7.60;;
66093;SDS011;52876;49.394;10.892;2022-09-12T05:32:39;9.60;;;8.70;;
66093;SDS011;52876;49.394;10.892;2022-09-12T05:35:05;10.03;;;9.10;;
66093;SDS011;52876;49.394;10.892;2022-09-12T05:37:36;10.40;;;9.40;;
66093;SDS011;52876;49.394;10.892;2022-09-12T05:40:03;11.00;;;9.90;;
66093;SDS011;52876;49.394;10.892;2022-09-12T05:42:36;11.90;;;10.40;;
66093;SDS011;52876;49.394;10.892;2022-09-12T05:45:02;10.43;;;9.47;;
66093;SDS011;52876;49.394;10.892;2022-09-12T05:47:30;11.90;;;10.43;;
66093;SDS011;52876;49.394;10.892;2022-09-12T05:49:58;11.17;;;10.17;;
66093;SDS011;52876;49.394;10.892;2022-09-12T05:52:32;19.83;;;12.47;;
66093;SDS011;52876;49.394;10.892;2022-09-12T05:54:58;19.57;;;12.77;;
66093;SDS011;52876;49.394;10.892;2022-09-12T05:57:27;11.50;;;10.30;;
66093;SDS011;52876;49.394;10.892;2022-09-12T05:59:53;11.20;;;10.10;;
66093;SDS011;52876;49.394;10.892;2022-09-12T06:02:21;16.90;;;12.73;;
66093;SDS011;52876;49.394;10.892;2022-09-12T06:04:47;13.60;;;11.40;;
66093;SDS011;52876;49.394;10.892;2022-09-12T06:07:17;13.20;;;11.30;;
66093;SDS011;52876;49.394;10.892;2022-09-12T06:09:44;15.60;;;11.80;;
66093;SDS011;52876;49.394;10.892;2022-09-12T06:12:10;13.03;;;11.73;;
66093;SDS011;52876;49.394;10.892;2022-09-12T06:14:38;11.73;;;10.57;;
66093;SDS011;52876;49.394;10.892;2022-09-12T06:17:07;14.43;;;10.17;;
66093;SDS011;52876;49.394;10.892;2022-09-12T06:19:34;15.57;;;10.10;;
66093;SDS011;52876;49.394;10.892;2022-09-12T06:22:01;9.90;;;8.63;;
66093;SDS011;52876;49.394;10.892;2022-09-12T06:24:29;11.90;;;9.80;;
66093;SDS011;52876;49.394;10.892;2022-09-12T06:26:55;9.00;;;8.10;;
66093;SDS011;52876;49.394;10.892;2022-09-12T06:29:21;9.50;;;8.60;;
66093;SDS011;52876;49.394;10.892;2022-09-12T06:31:48;9.87;;;8.20;;
66093;SDS011;52876;49.394;10.892;2022-09-12T06:34:14;14.83;;;9.00;;
66093;SDS011;52876;49.394;10.892;2022-09-12T06:36:42;10.67;;;9.73;;
66093;SDS011;52876;49.394;10.892;2022-09-12T06:39:10;8.67;;;7.77;;
66093;SDS011;52876;49.394;10.892;2022-09-12T06:41:41;10.37;;;9.40;;
66093;SDS011;52876;49.394;10.892;2022-09-12T06:44:08;9.37;;;8.47;;
66093;SDS011;52876;49.394;10.892;2022-09-12T06:46:42;8.97;;;8.27;;
66093;SDS011;52876;49.394;10.892;2022-09-12T06:49:08;8.70;;;8.00;;
66093;SDS011;52876;49.394;10.892;2022-09-12T06:51:37;9.53;;;8.77;;
66093;SDS011;52876;49.394;10.892;2022-09-12T06:54:03;8.70;;;7.90;;
66093;SDS011;52876;49.394;10.892;2022-09-12T06:56:34;10.30;;;9.30;;
66093;SDS011;52876;49.394;10.892;2022-09-12T06:59:01;10.20;;;9.10;;
66093;SDS011;52876;49.394;10.892;2022-09-12T07:01:32;10.90;;;9.90;;
66093;SDS011;52876;49.394;10.892;2022-09-12T07:03:59;15.20;;;9.70;;
66093;SDS011;52876;49.394;10.892;2022-09-12T07:06:28;8.30;;;7.60;;
66093;SDS011;52876;49.394;10.892;2022-09-12T07:08:56;9.33;;;8.50;;
66093;SDS011;52876;49.394;10.892;2022-09-12T07:11:23;8.37;;;7.77;;
66093;SDS011;52876;49.394;10.892;2022-09-12T07:13:51;12.97;;;8.53;;
66093;SDS011;52876;49.394;10.892;2022-09-12T07:16:20;8.40;;;7.70;;
66093;SDS011;52876;49.394;10.892;2022-09-12T07:18:49;12.83;;;6.53;;
66093;SDS011;52876;49.394;10.892;2022-09-12T07:21:17;8.40;;;7.70;;
66093;SDS011;52876;49.394;10.892;2022-09-12T07:23:43;7.63;;;7.03;;
66093;SDS011;52876;49.394;10.892;2022-09-12T07:26:30;7.50;;;6.97;;
66093;SDS011;52876;49.394;10.892;2022-09-12T07:28:59;7.40;;;6.80;;
66093;SDS011;52876;49.394;10.892;2022-09-12T07:31:28;6.73;;;6.27;;
66093;SDS011;52876;49.394;10.892;2022-09-12T07:33:54;8.10;;;7.37;;
66093;SDS011;52876;49.394;10.892;2022-09-12T07:36:22;7.00;;;6.50;;
66093;SDS011;52876;49.394;10.892;2022-09-12T07:38:52;8.03;;;7.43;;
66093;SDS011;52876;49.394;10.892;2022-09-12T07:41:20;9.00;;;8.20;;
66093;SDS011;52876;49.394;10.892;2022-09-12T07:43:47;7.87;;;7.27;;
66093;SDS011;52876;49.394;10.892;2022-09-12T07:46:14;7.70;;;7.10;;
66093;SDS011;52876;49.394;10.892;2022-09-12T07:48:42;7.33;;;6.83;;
66093;SDS011;52876;49.394;10.892;2022-09-12T07:51:09;8.10;;;7.40;;
66093;SDS011;52876;49.394;10.892;2022-09-12T07:53:36;8.27;;;7.67;;
66093;SDS011;52876;49.394;10.892;2022-09-12T07:56:04;8.03;;;7.43;;
66093;SDS011;52876;49.394;10.892;2022-09-12T07:58:31;7.93;;;7.33;;
66093;SDS011;52876;49.394;10.892;2022-09-12T08:01:01;7.03;;;6.53;;
66093;SDS011;52876;49.394;10.892;2022-09-12T08:03:30;8.73;;;8.03;;
66093;SDS011;52876;49.394;10.892;2022-09-12T08:06:02;7.80;;;7.30;;
66093;SDS011;52876;49.394;10.892;2022-09-12T08:08:30;7.83;;;7.27;;
66093;SDS011;52876;49.394;10.892;2022-09-12T08:10:59;6.70;;;6.30;;
66093;SDS011;52876;49.394;10.892;2022-09-12T08:13:26;8.40;;;7.73;;
66093;SDS011;52876;49.394;10.892;2022-09-12T08:15:55;10.50;;;9.60;;
66093;SDS011;52876;49.394;10.892;2022-09-12T08:18:22;15.03;;;12.47;;
66093;SDS011;52876;49.394;10.892;2022-09-12T08:20:54;12.60;;;11.40;;
66093;SDS011;52876;49.394;10.892;2022-09-12T08:23:22;27.73;;;16.10;;
66093;SDS011;52876;49.394;10.892;2022-09-12T08:25:49;25.70;;;15.87;;
66093;SDS011;52876;49.394;10.892;2022-09-12T08:28:15;13.73;;;12.37;;
66093;SDS011;52876;49.394;10.892;2022-09-12T08:30:43;12.43;;;11.13;;
66093;SDS011;52876;49.394;10.892;2022-09-12T08:33:12;10.03;;;9.23;;
66093;SDS011;52876;49.394;10.892;2022-09-12T08:35:45;10.50;;;9.60;;
66093;SDS011;52876;49.394;10.892;2022-09-12T08:38:12;10.07;;;9.17;;
66093;SDS011;52876;49.394;10.892;2022-09-12T08:40:43;14.40;;;13.00;;
66093;SDS011;52876;49.394;10.892;2022-09-12T08:43:18;13.70;;;12.33;;
66093;SDS011;52876;49.394;10.892;2022-09-12T08:45:53;53.43;;;21.27;;
66093;SDS011;52876;49.394;10.892;2022-09-12T08:48:21;40.83;;;17.57;;
66093;SDS011;52876;49.394;10.892;2022-09-12T08:50:52;34.63;;;16.03;;
66093;SDS011;52876;49.394;10.892;2022-09-12T08:53:20;53.47;;;20.17;;
66093;SDS011;52876;49.394;10.892;2022-09-12T08:55:49;36.80;;;16.47;;
66093;SDS011;52876;49.394;10.892;2022-09-12T08:58:19;48.00;;;19.73;;
66093;SDS011;52876;49.394;10.892;2022-09-12T09:00:48;32.73;;;15.10;;
66093;SDS011;52876;49.394;10.892;2022-09-12T09:06:06;35.10;;;16.30;;
66093;SDS011;52876;49.394;10.892;2022-09-12T09:08:42;51.63;;;20.27;;
66093;SDS011;52876;49.394;10.892;2022-09-12T09:11:18;55.43;;;21.43;;
66093;SDS011;52876;49.394;10.892;2022-09-12T09:13:50;61.10;;;21.10;;
66093;SDS011;52876;49.394;10.892;2022-09-12T09:16:21;55.37;;;21.90;;
66093;SDS011;52876;49.394;10.892;2022-09-12T09:18:49;63.97;;;23.40;;
66093;SDS011;52876;49.394;10.892;2022-09-12T09:21:20;46.50;;;18.63;;
66093;SDS011;52876;49.394;10.892;2022-09-12T09:23:49;99.03;;;32.90;;
66093;SDS011;52876;49.394;10.892;2022-09-12T09:26:20;41.63;;;16.10;;
66093;SDS011;52876;49.394;10.892;2022-09-12T09:28:49;61.87;;;21.67;;
66093;SDS011;52876;49.394;10.892;2022-09-12T09:31:23;79.87;;;26.20;;
66093;SDS011;52876;49.394;10.892;2022-09-12T09:33:51;66.53;;;24.03;;
66093;SDS011;52876;49.394;10.892;2022-09-12T09:36:29;64.47;;;21.83;;
66093;SDS011;52876;49.394;10.892;2022-09-12T09:38:58;87.50;;;27.70;;
66093;SDS011;52876;49.394;10.892;2022-09-12T09:41:36;80.67;;;26.17;;
66093;SDS011;52876;49.394;10.892;2022-09-12T09:44:05;37.97;;;16.23;;
66093;SDS011;52876;49.394;10.892;2022-09-12T09:46:38;44.60;;;17.77;;
66093;SDS011;52876;49.394;10.892;2022-09-12T09:49:08;40.73;;;17.43;;
66093;SDS011;52876;49.394;10.892;2022-09-12T09:51:40;47.87;;;18.20;;
66093;SDS011;52876;49.394;10.892;2022-09-12T09:54:10;52.30;;;19.80;;
66093;SDS011;52876;49.394;10.892;2022-09-12T09:56:40;42.47;;;16.63;;
66093;SDS011;52876;49.394;10.892;2022-09-12T09:59:08;28.23;;;12.80;;
66093;SDS011;52876;49.394;10.892;2022-09-12T10:01:45;42.50;;;16.97;;
66093;SDS011;52876;49.394;10.892;2022-09-12T10:04:18;30.40;;;12.83;;
66093;SDS011;52876;49.394;10.892;2022-09-12T10:06:50;39.97;;;16.70;;
66093;SDS011;52876;49.394;10.892;2022-09-12T10:09:19;38.40;;;16.10;;
66093;SDS011;52876;49.394;10.892;2022-09-12T10:11:49;32.20;;;15.80;;
66093;SDS011;52876;49.394;10.892;2022-09-12T10:14:27;34.93;;;15.73;;
66093;SDS011;52876;49.394;10.892;2022-09-12T10:16:55;30.67;;;12.80;;
66093;SDS011;52876;49.394;10.892;2022-09-12T10:19:23;41.73;;;15.43;;
66093;SDS011;52876;49.394;10.892;2022-09-12T10:21:58;38.97;;;15.37;;
66093;SDS011;52876;49.394;10.892;2022-09-12T10:24:25;29.43;;;12.53;;
66093;SDS011;52876;49.394;10.892;2022-09-12T10:27:08;43.30;;;15.80;;
66093;SDS011;52876;49.394;10.892;2022-09-12T10:29:40;22.63;;;10.53;;
66093;SDS011;52876;49.394;10.892;2022-09-12T10:32:18;53.93;;;20.83;;
66093;SDS011;52876;49.394;10.892;2022-09-12T10:34:50;27.90;;;12.50;;
66093;SDS011;52876;49.394;10.892;2022-09-12T10:37:22;23.90;;;11.00;;
66093;SDS011;52876;49.394;10.892;2022-09-12T10:39:51;21.03;;;10.60;;
66093;SDS011;52876;49.394;10.892;2022-09-12T10:42:48;28.07;;;13.77;;
66093;SDS011;52876;49.394;10.892;2022-09-12T10:45:17;29.80;;;13.40;;
66093;SDS011;52876;49.394;10.892;2022-09-12T10:47:55;42.07;;;18.00;;
66093;SDS011;52876;49.394;10.892;2022-09-12T10:50:27;38.07;;;15.63;;
66093;SDS011;52876;49.394;10.892;2022-09-12T10:52:54;151.07;;;53.07;;
66093;SDS011;52876;49.394;10.892;2022-09-12T10:55:38;50.20;;;17.40;;
66093;SDS011;52876;49.394;10.892;2022-09-12T10:58:14;55.83;;;19.80;;
66093;SDS011;52876;49.394;10.892;2022-09-12T11:00:45;66.27;;;21.87;;
66093;SDS011;52876;49.394;10.892;2022-09-12T11:03:14;60.43;;;19.97;;
66093;SDS011;52876;49.394;10.892;2022-09-12T11:05:44;58.90;;;20.57;;
66093;SDS011;52876;49.394;10.892;2022-09-12T11:11:06;125.57;;;39.07;;
66093;SDS011;52876;49.394;10.892;2022-09-12T11:13:44;75.37;;;25.60;;
66093;SDS011;52876;49.394;10.892;2022-09-12T11:16:15;55.10;;;19.03;;
66093;SDS011;52876;49.394;10.892;2022-09-12T11:21:40;70.60;;;23.43;;
66093;SDS011;52876;49.394;10.892;2022-09-12T11:24:19;116.57;;;35.77;;
66093;SDS011;52876;49.394;10.892;2022-09-12T11:26:50;87.47;;;27.73;;
66093;SDS011;52876;49.394;10.892;2022-09-12T11:29:23;64.17;;;23.80;;
66093;SDS011;52876;49.394;10.892;2022-09-12T11:34:36;65.47;;;21.53;;
66093;SDS011;52876;49.394;10.892;2022-09-12T11:37:23;54.10;;;17.93;;
66093;SDS011;52876;49.394;10.892;2022-09-12T11:39:55;68.47;;;22.03;;
66093;SDS011;52876;49.394;10.892;2022-09-12T11:42:25;83.07;;;25.97;;
66093;SDS011;52876;49.394;10.892;2022-09-12T11:45:00;59.33;;;19.40;;
66093;SDS011;52876;49.394;10.892;2022-09-12T11:47:37;35.20;;;14.03;;
66093;SDS011;52876;49.394;10.892;2022-09-12T11:50:05;58.83;;;19.53;;
66093;SDS011;52876;49.394;10.892;2022-09-12T11:52:38;33.60;;;13.60;;
66093;SDS011;52876;49.394;10.892;2022-09-12T11:55:04;58.50;;;19.80;;
66093;SDS011;52876;49.394;10.892;2022-09-12T11:57:42;31.13;;;13.40;;
66093;SDS011;52876;49.394;10.892;2022-09-12T12:00:16;34.73;;;13.53;;
66093;SDS011;52876;49.394;10.892;2022-09-12T12:02:50;44.47;;;16.77;;
66093;SDS011;52876;49.394;10.892;2022-09-12T12:05:23;63.87;;;21.30;;
66093;SDS011;52876;49.394;10.892;2022-09-12T12:07:55;59.73;;;19.97;;
66093;SDS011;52876;49.394;10.892;2022-09-12T12:10:29;47.80;;;16.83;;
66093;SDS011;52876;49.394;10.892;2022-09-12T12:13:00;53.67;;;17.30;;
66093;SDS011;52876;49.394;10.892;2022-09-12T12:15:31;56.23;;;18.83;;
66093;SDS011;52876;49.394;10.892;2022-09-12T12:18:00;48.30;;;15.93;;
66093;SDS011;52876;49.394;10.892;2022-09-12T12:20:39;27.37;;;11.63;;
66093;SDS011;52876;49.394;10.892;2022-09-12T12:23:05;27.63;;;12.07;;
66093;SDS011;52876;49.394;10.892;2022-09-12T12:25:38;48.33;;;18.50;;
66093;SDS011;52876;49.394;10.892;2022-09-12T12:28:14;32.60;;;13.90;;
66093;SDS011;52876;49.394;10.892;2022-09-12T12:31:15;48.07;;;18.57;;
66093;SDS011;52876;49.394;10.892;2022-09-12T12:45:46;64.07;;;20.20;;
66093;SDS011;52876;49.394;10.892;2022-09-12T12:48:17;25.33;;;10.70;;
66093;SDS011;52876;49.394;10.892;2022-09-12T12:50:50;40.00;;;16.50;;
66093;SDS011;52876;49.394;10.892;2022-09-12T12:53:19;44.37;;;18.00;;
66093;SDS011;52876;49.394;10.892;2022-09-12T12:55:49;44.40;;;16.60;;
66093;SDS011;52876;49.394;10.892;2022-09-12T12:58:22;33.57;;;13.70;;
66093;SDS011;52876;49.394;10.892;2022-09-12T13:01:02;36.47;;;14.10;;
66093;SDS011;52876;49.394;10.892;2022-09-12T13:03:32;55.23;;;19.27;;
66093;SDS011;52876;49.394;10.892;2022-09-12T13:06:01;61.03;;;21.20;;
66093;SDS011;52876;49.394;10.892;2022-09-12T13:08:30;47.20;;;15.83;;
66093;SDS011;52876;49.394;10.892;2022-09-12T13:10:59;51.47;;;17.57;;
66093;SDS011;52876;49.394;10.892;2022-09-12T13:13:29;65.93;;;22.63;;
66093;SDS011;52876;49.394;10.892;2022-09-12T13:16:00;45.33;;;15.53;;
66093;SDS011;52876;49.394;10.892;2022-09-12T13:18:27;39.23;;;14.23;;
66093;SDS011;52876;49.394;10.892;2022-09-12T13:21:20;47.00;;;16.63;;
66093;SDS011;52876;49.394;10.892;2022-09-12T13:23:57;37.53;;;14.50;;
66093;SDS011;52876;49.394;10.892;2022-09-12T13:26:34;41.93;;;15.10;;
66093;SDS011;52876;49.394;10.892;2022-09-12T13:29:08;38.87;;;16.77;;
66093;SDS011;52876;49.394;10.892;2022-09-12T13:31:36;21.23;;;11.00;;
66093;SDS011;52876;49.394;10.892;2022-09-12T13:34:03;45.50;;;16.10;;
66093;SDS011;52876;49.394;10.892;2022-09-12T13:36:44;34.90;;;15.57;;
66093;SDS011;52876;49.394;10.892;2022-09-12T13:39:34;30.97;;;13.53;;
66093;SDS011;52876;49.394;10.892;2022-09-12T13:42:25;21.70;;;10.63;;
66093;SDS011;52876;49.394;10.892;2022-09-12T13:45:05;25.53;;;11.10;;
66093;SDS011;52876;49.394;10.892;2022-09-12T13:47:47;20.43;;;9.93;;
66093;SDS011;52876;49.394;10.892;2022-09-12T13:50:16;30.63;;;13.27;;
66093;SDS011;52876;49.394;10.892;2022-09-12T13:53:00;49.20;;;17.20;;
66093;SDS011;52876;49.394;10.892;2022-09-12T13:55:28;37.50;;;14.70;;
66093;SDS011;52876;49.394;10.892;2022-09-12T13:57:57;57.03;;;20.30;;
66093;SDS011;52876;49.394;10.892;2022-09-12T14:00:24;39.57;;;15.33;;
66093;SDS011;52876;49.394;10.892;2022-09-12T14:02:59;42.53;;;16.23;;
66093;SDS011;52876;49.394;10.892;2022-09-12T14:05:26;41.20;;;14.93;;
66093;SDS011;52876;49.394;10.892;2022-09-12T14:07:53;17.60;;;9.43;;
66093;SDS011;52876;49.394;10.892;2022-09-12T14:10:37;30.60;;;15.10;;
66093;SDS011;52876;49.394;10.892;2022-09-12T14:13:08;27.93;;;12.77;;
66093;SDS011;52876;49.394;10.892;2022-09-12T14:15:49;41.83;;;16.40;;
66093;SDS011;52876;49.394;10.892;2022-09-12T14:18:22;42.23;;;15.37;;
66093;SDS011;52876;49.394;10.892;2022-09-12T14:20:49;27.17;;;11.10;;
66093;SDS011;52876;49.394;10.892;2022-09-12T14:23:19;36.97;;;14.23;;
66093;SDS011;52876;49.394;10.892;2022-09-12T14:25:53;37.97;;;16.30;;
66093;SDS011;52876;49.394;10.892;2022-09-12T14:28:21;24.80;;;11.10;;
66093;SDS011;52876;49.394;10.892;2022-09-12T14:30:59;36.73;;;14.80;;
66093;SDS011;52876;49.394;10.892;2022-09-12T14:33:31;47.80;;;17.30;;
66093;SDS011;52876;49.394;10.892;2022-09-12T14:36:09;42.53;;;15.00;;
66093;SDS011;52876;49.394;10.892;2022-09-12T14:38:40;23.83;;;11.23;;
66093;SDS011;52876;49.394;10.892;2022-09-12T14:41:12;30.97;;;14.50;;
66093;SDS011;52876;49.394;10.892;2022-09-12T14:43:45;21.20;;;10.00;;
66093;SDS011;52876;49.394;10.892;2022-09-12T14:46:17;32.70;;;14.93;;
66093;SDS011;52876;49.394;10.892;2022-09-12T14:48:48;22.83;;;11.23;;
66093;SDS011;52876;49.394;10.892;2022-09-12T14:51:21;30.50;;;12.73;;
66093;SDS011;52876;49.394;10.892;2022-09-12T14:53:51;46.43;;;16.43;;
66093;SDS011;52876;49.394;10.892;2022-09-12T14:56:20;32.37;;;12.50;;
66093;SDS011;52876;49.394;10.892;2022-09-12T14:58:47;42.10;;;16.13;;
66093;SDS011;52876;49.394;10.892;2022-09-12T15:01:25;30.63;;;12.10;;